createdAt,value
2023-05-19T02:14:26.501Z,22.38
2023-05-19T02:16:54.861Z,25.50
2023-05-19T02:19:45.118Z,22.85
2023-05-19T02:22:50.227Z,32.20
2023-05-19T02:37:02.183Z,24.92
2023-05-19T02:50:15.565Z,25.00
2023-05-19T02:52:54.754Z,26.02
2023-05-19T02:55:32.749Z,23.88
2023-05-19T02:58:01.733Z,27.55
2023-05-19T03:01:01.085Z,31.98
2023-05-19T03:14:47.770Z,21.10
2023-05-19T03:36:12.818Z,21.77
2023-05-19T03:39:14.058Z,22.70
2023-05-19T03:41:42.214Z,33.17
2023-05-19T03:44:18.397Z,30.42
2023-05-19T03:47:29.657Z,26.90
2023-05-19T03:55:58.370Z,23.42
2023-05-19T03:58:27.146Z,22.13
2023-05-19T04:00:56.283Z,26.50
2023-05-19T04:03:59.055Z,21.17
2023-05-19T04:06:31.282Z,20.67
2023-05-19T04:09:03.097Z,30.70
2023-05-19T04:11:32.155Z,20.50
2023-05-19T04:14:01.985Z,26.90
2023-05-19T04:16:35.054Z,22.52
2023-05-19T04:19:06.153Z,17.48
2023-05-19T04:22:17.804Z,27.35
2023-05-19T04:25:00.154Z,20.83
2023-05-19T04:27:39.697Z,18.88
2023-05-19T04:31:24.222Z,16.67
2023-05-19T04:33:53.780Z,17.92
2023-05-19T04:36:58.411Z,16.38
2023-05-19T04:44:21.110Z,14.52
2023-05-19T04:46:54.838Z,18.85
2023-05-19T04:49:56.791Z,14.98
2023-05-19T04:52:59.616Z,21.23
2023-05-19T04:55:38.935Z,16.75
2023-05-19T04:58:10.689Z,15.65
2023-05-19T05:05:07.393Z,12.25
2023-05-19T05:07:45.148Z,12.40
2023-05-19T05:10:25.549Z,16.40
2023-05-19T05:13:02.490Z,14.38
2023-05-19T05:15:54.921Z,14.05
2023-05-19T05:18:31.863Z,15.55
2023-05-19T05:21:40.441Z,14.75
2023-05-19T05:24:10.168Z,16.50
2023-05-19T05:26:40.852Z,16.08
2023-05-19T05:29:10.840Z,19.17
2023-05-19T05:31:45.751Z,17.73
2023-05-19T05:34:15.981Z,21.02
2023-05-19T05:36:56.628Z,15.45
2023-05-19T05:39:35.676Z,13.30
2023-05-19T05:42:11.222Z,14.57
2023-05-19T05:44:57.948Z,16.85
2023-05-19T05:50:18.902Z,14.40
2023-05-19T05:52:48.076Z,12.05
2023-05-19T05:55:18.784Z,11.68
2023-05-19T05:57:48.868Z,17.58
2023-05-19T06:00:19.123Z,14.57
2023-05-19T06:03:27.904Z,17.40
2023-05-19T06:06:31.700Z,15.90
2023-05-19T06:09:03.737Z,11.05
2023-05-19T06:11:33.315Z,11.65
2023-05-19T06:14:03.209Z,12.52
2023-05-19T06:16:49.973Z,13.18
2023-05-19T06:19:21.457Z,9.77
2023-05-19T06:21:49.665Z,10.65
2023-05-19T06:24:18.061Z,13.25
2023-05-19T06:26:48.586Z,12.55
2023-05-19T06:29:18.279Z,13.43
2023-05-19T06:32:00.011Z,15.55
2023-05-19T06:34:31.609Z,19.05
2023-05-19T06:37:41.286Z,12.77
2023-05-19T06:40:12.255Z,14.05
2023-05-19T06:42:43.542Z,13.50
2023-05-19T06:45:22.710Z,13.73
2023-05-19T06:47:55.012Z,11.65
2023-05-19T06:50:24.941Z,12.20
2023-05-19T06:53:55.202Z,13.63
2023-05-19T07:02:26.535Z,9.95
2023-05-19T07:05:36.014Z,11.20
2023-05-19T07:13:17.462Z,7.30
2023-05-19T07:16:18.029Z,11.98
2023-05-19T07:19:20.231Z,23.65
2023-05-19T07:21:48.880Z,10.18
2023-05-19T07:24:21.651Z,13.27
2023-05-19T07:27:22.003Z,9.45
2023-05-19T07:29:50.361Z,7.60
2023-05-19T07:32:18.955Z,9.93
2023-05-19T07:34:47.110Z,6.97
2023-05-19T07:38:57.788Z,8.85
2023-05-19T07:41:30.103Z,7.78
2023-05-19T07:43:58.619Z,5.85
2023-05-19T07:46:31.598Z,10.38
2023-05-19T07:48:59.925Z,7.68
2023-05-19T07:52:24.254Z,9.38
2023-05-19T07:55:12.230Z,6.97
2023-05-19T07:58:14.658Z,31.25
2023-05-19T08:00:59.345Z,13.98
2023-05-19T08:03:47.445Z,8.50
2023-05-19T08:06:17.557Z,9.60
2023-05-19T08:08:47.787Z,9.45
2023-05-19T08:11:24.342Z,5.82
2023-05-19T08:14:04.148Z,7.45
2023-05-19T08:16:36.344Z,8.75
2023-05-19T08:19:07.649Z,10.27
2023-05-19T08:21:43.367Z,13.68
2023-05-19T08:24:11.941Z,19.70
2023-05-19T08:26:40.523Z,7.15
2023-05-19T08:29:09.419Z,6.40
2023-05-19T08:32:13.332Z,9.10
2023-05-19T08:34:43.347Z,11.98
2023-05-19T08:37:20.269Z,9.18
2023-05-19T08:39:50.649Z,7.32
2023-05-19T08:42:26.412Z,7.20
2023-05-19T08:44:58.690Z,15.80
2023-05-19T08:47:30.411Z,7.38
2023-05-19T08:54:37.449Z,12.88
2023-05-19T08:57:13.759Z,12.57
2023-05-19T08:59:42.484Z,5.97
2023-05-19T09:02:13.811Z,8.38
2023-05-19T09:05:02.372Z,8.27
2023-05-19T09:08:10.532Z,9.48
2023-05-19T09:10:39.658Z,14.82
2023-05-19T09:13:09.824Z,9.82
2023-05-19T09:15:40.328Z,8.35
2023-05-19T09:18:12.719Z,7.72
2023-05-19T09:20:43.403Z,6.22
2023-05-19T09:23:16.553Z,9.45
2023-05-19T09:25:52.201Z,12.63
2023-05-19T09:32:11.442Z,9.38
2023-05-19T09:34:48.003Z,9.82
2023-05-19T09:37:17.642Z,10.00
2023-05-19T09:39:52.286Z,11.23
2023-05-19T09:43:05.685Z,10.57
2023-05-19T09:45:41.414Z,11.95
2023-05-19T09:48:42.659Z,6.72
2023-05-19T09:51:13.271Z,11.57
2023-05-19T09:54:19.260Z,8.93
2023-05-19T09:57:01.603Z,12.75
2023-05-19T09:59:32.854Z,14.18
2023-05-19T10:02:01.612Z,12.40
2023-05-19T10:04:33.826Z,12.48
2023-05-19T10:07:05.774Z,13.02
2023-05-19T10:09:37.592Z,15.40
2023-05-19T10:12:06.614Z,15.95
2023-05-19T10:14:42.588Z,13.05
2023-05-19T10:17:12.588Z,12.93
2023-05-19T10:19:41.635Z,9.93
2023-05-19T10:22:10.427Z,11.77
2023-05-19T10:24:38.454Z,12.13
2023-05-19T10:27:09.232Z,11.93
2023-05-19T10:29:41.855Z,12.43
2023-05-19T10:32:15.970Z,15.90
2023-05-19T10:35:10.898Z,14.93
2023-05-19T10:38:09.265Z,20.48
2023-05-19T10:41:19.162Z,14.02
2023-05-19T10:44:45.540Z,16.23
2023-05-19T10:47:14.646Z,14.07
2023-05-19T10:50:08.755Z,14.50
2023-05-19T10:56:06.945Z,16.58
2023-05-19T10:58:41.660Z,16.55
2023-05-19T11:01:20.032Z,15.20
2023-05-19T11:03:59.840Z,16.38
2023-05-19T11:16:52.813Z,16.05
2023-05-19T11:22:13.462Z,18.25
2023-05-19T11:24:52.853Z,16.60
2023-05-19T11:27:27.377Z,13.25
2023-05-19T11:30:00.394Z,15.85
2023-05-19T11:32:30.840Z,18.20
2023-05-19T11:34:59.364Z,16.65
2023-05-19T11:37:31.075Z,13.20
2023-05-19T11:40:23.871Z,14.02
2023-05-19T11:42:53.160Z,15.35
2023-05-19T11:45:28.846Z,12.63
2023-05-19T11:48:23.828Z,16.40
2023-05-19T11:50:53.285Z,12.68
2023-05-19T11:53:32.224Z,13.00
2023-05-19T11:56:06.719Z,13.82
2023-05-19T11:58:45.381Z,12.32
2023-05-19T12:01:15.820Z,13.75
2023-05-19T12:03:53.450Z,18.60
2023-05-19T12:06:49.726Z,13.65
2023-05-19T12:09:19.995Z,17.73
2023-05-19T12:11:55.874Z,12.70
2023-05-19T12:14:55.321Z,12.07
2023-05-19T12:17:24.610Z,16.52
2023-05-19T12:20:29.139Z,15.52
2023-05-19T12:23:02.212Z,12.20
2023-05-19T12:25:54.198Z,13.85
2023-05-19T12:28:55.050Z,20.73
2023-05-19T12:31:26.040Z,12.70
2023-05-19T12:34:09.543Z,10.85
2023-05-19T12:36:44.437Z,13.02
2023-05-19T12:39:23.636Z,12.18
2023-05-19T12:42:13.231Z,11.80
2023-05-19T12:44:48.547Z,11.95
2023-05-19T12:47:38.600Z,11.77
2023-05-19T12:50:10.340Z,17.08
2023-05-19T12:52:53.728Z,16.13
2023-05-19T12:55:35.314Z,13.60
2023-05-19T12:58:17.782Z,17.42
2023-05-19T13:00:51.990Z,12.57
2023-05-19T13:03:25.003Z,12.70
2023-05-19T13:05:53.670Z,13.05
2023-05-19T13:08:33.079Z,13.02
2023-05-19T13:12:11.076Z,11.98
2023-05-19T13:14:49.407Z,13.45
2023-05-19T13:17:40.469Z,12.70
2023-05-19T13:20:10.265Z,13.07
2023-05-19T13:22:42.780Z,12.45
2023-05-19T13:26:27.170Z,10.20
2023-05-19T13:30:30.800Z,13.52
2023-05-19T13:33:00.886Z,12.93
2023-05-19T13:35:30.103Z,15.50
2023-05-19T13:37:58.567Z,15.23
2023-05-19T13:40:58.500Z,14.55
2023-05-19T13:43:27.740Z,18.38
2023-05-19T13:49:15.853Z,16.10
2023-05-19T13:51:44.390Z,13.27
2023-05-19T13:54:20.083Z,13.82
2023-05-19T13:56:49.840Z,14.85
2023-05-19T13:59:31.172Z,18.27
2023-05-19T14:02:07.779Z,16.55
2023-05-19T14:04:39.806Z,13.98
2023-05-19T14:07:14.632Z,13.88
2023-05-19T14:09:42.848Z,17.42
2023-05-19T14:12:12.507Z,17.27
2023-05-19T14:14:49.413Z,17.60
2023-05-19T14:17:20.186Z,16.38
2023-05-19T14:19:50.939Z,19.60
2023-05-19T14:22:19.965Z,15.68
2023-05-19T14:24:50.002Z,13.48
2023-05-19T14:27:28.449Z,23.55
2023-05-19T14:29:59.803Z,18.15
2023-05-19T14:32:30.640Z,18.73
2023-05-19T14:34:59.744Z,19.63
2023-05-19T14:37:32.603Z,14.32
2023-05-19T14:40:46.175Z,20.88
2023-05-19T14:43:23.143Z,17.90
2023-05-19T14:46:02.309Z,21.98
2023-05-19T14:48:37.996Z,18.65
2023-05-19T14:51:07.968Z,14.57
2023-05-19T14:53:38.003Z,21.23
2023-05-19T14:56:38.723Z,18.00
2023-05-19T15:04:26.384Z,11.95
2023-05-19T15:07:13.420Z,11.68
2023-05-19T15:10:35.633Z,14.45
2023-05-19T15:14:10.818Z,14.27
2023-05-19T15:21:32.597Z,12.68
2023-05-19T15:30:48.009Z,15.15
2023-05-19T15:39:31.110Z,15.18
2023-05-19T15:43:24.190Z,13.15
2023-05-19T15:47:27.586Z,10.95
2023-05-19T15:51:34.638Z,13.85
2023-05-19T16:36:42.298Z,20.40
2023-05-19T16:39:49.395Z,21.70
2023-05-19T16:46:35.270Z,19.60
2023-05-19T16:51:34.780Z,18.92
2023-05-19T16:54:01.230Z,15.75
2023-05-19T16:56:34.065Z,19.70
2023-05-19T16:59:03.105Z,15.63
2023-05-19T17:02:05.746Z,17.88
2023-05-19T17:04:43.494Z,20.10
2023-05-19T17:07:19.533Z,20.90
2023-05-19T17:10:21.911Z,19.23
2023-05-19T17:13:06.244Z,18.75
2023-05-19T17:15:57.598Z,36.05
2023-05-19T17:19:08.823Z,14.00
2023-05-19T17:21:38.659Z,22.10
2023-05-19T17:24:22.891Z,20.15
2023-05-19T17:35:42.708Z,18.10
2023-05-19T17:38:33.320Z,19.27
2023-05-19T17:41:48.644Z,18.35
2023-05-19T17:44:20.722Z,20.08
2023-05-19T17:47:04.063Z,21.88
2023-05-19T17:50:10.556Z,22.05
2023-05-19T17:53:10.145Z,19.48
2023-05-19T17:55:41.681Z,18.77
2023-05-19T18:04:10.144Z,18.60
2023-05-19T18:17:50.473Z,25.90
2023-05-19T18:20:53.687Z,27.73
2023-05-19T18:31:30.234Z,30.60
2023-05-19T18:34:00.922Z,25.50
2023-05-19T18:36:33.146Z,24.42
2023-05-19T18:39:02.136Z,23.42
2023-05-19T18:41:33.644Z,24.05
2023-05-19T18:44:36.609Z,31.25
2023-05-19T18:47:12.333Z,27.15
2023-05-19T18:49:44.969Z,32.17
2023-05-19T18:52:40.636Z,47.30
2023-05-19T18:56:54.873Z,33.23
2023-05-19T19:00:35.702Z,31.50
2023-05-19T19:09:13.431Z,49.58
2023-05-19T19:25:30.816Z,43.85
2023-05-19T19:29:06.327Z,44.75
2023-05-19T19:31:35.235Z,48.25
2023-05-19T19:34:59.660Z,44.65
2023-05-19T19:37:32.574Z,38.63
2023-05-19T19:40:14.522Z,41.38
2023-05-19T19:42:44.418Z,43.05
2023-05-19T19:45:18.028Z,43.65
2023-05-19T19:53:22.573Z,35.97
2023-05-19T19:56:24.767Z,49.40
2023-05-19T19:59:00.467Z,37.05
2023-05-19T20:01:29.463Z,47.75
2023-05-19T20:03:58.499Z,50.88
2023-05-19T20:06:28.225Z,49.67
2023-05-19T20:08:59.866Z,54.50
2023-05-19T20:11:30.791Z,44.28
2023-05-19T20:14:03.352Z,63.53
2023-05-19T20:16:32.701Z,39.53
2023-05-19T20:19:02.496Z,32.85
2023-05-19T20:21:35.626Z,37.65
2023-05-19T20:24:04.853Z,32.20
2023-05-19T20:27:02.802Z,40.80
2023-05-19T20:29:54.457Z,38.92
2023-05-19T20:32:23.124Z,38.90
2023-05-19T20:34:51.573Z,38.42
2023-05-19T20:37:43.224Z,46.00
2023-05-19T20:40:23.217Z,37.80
2023-05-19T20:42:55.344Z,36.15
2023-05-19T20:45:30.819Z,40.67
2023-05-19T20:47:59.703Z,45.30
2023-05-19T20:50:29.192Z,35.70
2023-05-19T20:52:58.290Z,48.90
2023-05-19T20:55:58.934Z,45.15
2023-05-19T20:58:37.844Z,49.22
2023-05-19T21:01:06.205Z,40.17
2023-05-19T21:03:36.260Z,47.95
2023-05-19T21:07:40.592Z,40.42
2023-05-19T21:10:47.951Z,46.72
2023-05-19T21:15:47.923Z,45.28
2023-05-19T21:18:17.584Z,43.78
2023-05-19T21:20:46.542Z,58.55
2023-05-19T21:24:51.254Z,36.78
2023-05-19T21:27:59.203Z,42.20
2023-05-19T21:32:12.673Z,42.70
2023-05-19T21:34:40.893Z,45.15
2023-05-19T21:37:13.221Z,40.83
2023-05-19T21:39:42.560Z,40.90
2023-05-19T21:42:43.124Z,38.92
2023-05-19T21:45:18.399Z,39.55
2023-05-19T21:47:53.502Z,40.33
2023-05-19T21:50:21.964Z,41.33
2023-05-19T21:52:52.135Z,35.78
2023-05-19T21:56:04.230Z,42.35
2023-05-19T21:58:34.845Z,33.78
2023-05-19T22:01:10.147Z,41.08
2023-05-19T22:03:41.680Z,45.55
2023-05-19T22:07:27.114Z,40.58
2023-05-19T22:09:57.164Z,42.30
2023-05-19T22:12:26.742Z,53.50
2023-05-19T22:16:34.574Z,43.15
2023-05-19T22:19:12.025Z,71.93
2023-05-19T22:22:48.280Z,64.78
2023-05-19T22:25:18.892Z,67.70
2023-05-19T22:27:56.986Z,74.68
2023-05-19T22:30:25.996Z,68.78
2023-05-19T22:32:54.119Z,72.18
2023-05-19T22:35:22.487Z,70.63
2023-05-19T22:37:58.532Z,68.05
2023-05-19T22:41:06.093Z,73.15
2023-05-19T22:43:35.714Z,63.40
2023-05-19T22:46:37.050Z,66.65
2023-05-19T22:49:07.651Z,65.25
2023-05-19T22:51:39.621Z,64.32
2023-05-19T22:54:08.438Z,74.28
2023-05-19T22:56:44.411Z,68.68
2023-05-19T22:59:53.096Z,75.50
2023-05-19T23:02:30.165Z,143.25
2023-05-19T23:04:59.864Z,185.15
2023-05-19T23:07:28.434Z,175.23
2023-05-19T23:10:21.728Z,127.32
2023-05-19T23:12:51.698Z,86.65
2023-05-19T23:16:24.891Z,90.00
2023-05-19T23:18:54.476Z,101.32
2023-05-19T23:21:23.332Z,96.88
2023-05-19T23:23:53.557Z,104.78
2023-05-19T23:26:33.333Z,77.88
2023-05-19T23:29:03.923Z,91.28
2023-05-19T23:31:34.772Z,86.65
2023-05-19T23:34:03.774Z,96.03
2023-05-19T23:37:12.975Z,140.65
2023-05-19T23:39:45.244Z,105.15
2023-05-19T23:42:16.535Z,115.53
2023-05-19T23:49:20.072Z,112.65
2023-05-19T23:51:48.619Z,99.05
2023-05-19T23:54:16.816Z,90.53
2023-05-19T23:56:52.643Z,69.75
2023-05-19T23:59:27.414Z,73.45
